Time;durP1;ratioP1;P1;durP2;ratioP2;P2;SDS_P1;SDS_P2;PMS_P1;PMS_P2;Temp;Humidity;BMP_temperature;BMP_pressure;BME280_temperature;BME280_humidity;BME280_pressure;Samples;Min_cycle;Max_cycle;Signal;HPM_P1;HPM_P2
2022/12/15 00:40:03;;;;;;;;;;;-1.80;99.90;;;;;;5045336;28;19947;-71
2022/12/15 00:42:29;;;;;;;;;;;-1.80;99.90;;;;;;5044530;28;19931;-71
2022/12/15 00:44:55;;;;;;;;;;;-1.80;99.90;;;;;;5044941;28;20358;-71
2022/12/15 00:47:21;;;;;;;;;;;-1.80;99.90;;;;;;4995307;28;19932;-70
2022/12/15 01:22:40;;;;;;;;;;;-1.70;99.90;;;;;;5047482;28;20286;-72
2022/12/15 01:25:07;;;;;;;;;;;-1.70;99.90;;;;;;5047903;28;19925;-71
2022/12/15 01:27:32;;;;;;;;;;;-1.80;99.90;;;;;;5047187;28;19925;-70
2022/12/15 01:29:58;;;;;;;;;;;-1.80;99.90;;;;;;5032132;28;20252;-71
2022/12/15 01:32:23;;;;;;;;;;;-1.80;99.90;;;;;;5047666;28;19980;-72
2022/12/15 01:34:49;;;;;;;;;;;-1.80;99.90;;;;;;5014254;28;19974;-71
2022/12/15 01:37:15;;;;;;;;;;;-1.80;99.90;;;;;;5032216;28;19932;-72
2022/12/15 01:42:24;;;;;;;;;;;-1.80;99.90;;;;;;5047857;28;19932;-71
2022/12/15 01:44:51;;;;;;;;;;;-1.80;99.90;;;;;;5030187;28;19925;-72
2022/12/15 01:47:17;;;;;;;;;;;-1.80;99.90;;;;;;5046932;28;19976;-72
2022/12/15 01:49:46;;;;;;;;;;;-1.70;99.90;;;;;;5047219;28;19972;-72
2022/12/15 01:52:13;;;;;;;;;;;-1.80;99.90;;;;;;5047520;28;20003;-73
2022/12/15 01:54:46;;;;;;;;;;;-1.80;99.90;;;;;;5014067;28;19976;-71
2022/12/15 01:57:13;;;;;;;;;;;-1.80;99.90;;;;;;5047312;28;20227;-72
2022/12/15 01:59:47;;;;;;;;;;;-1.80;99.90;;;;;;5031351;28;19925;-70
2022/12/15 02:02:14;;;;;;;;;;;-1.80;99.90;;;;;;5047529;27;19925;-71
2022/12/15 02:04:40;;;;;;;;;;;-1.80;99.90;;;;;;5046862;28;19925;-71
2022/12/15 02:07:06;;;;;;;;;;;-1.80;99.90;;;;;;5046924;28;20330;-71
2022/12/15 02:09:31;;;;;;;;;;;-1.80;99.90;;;;;;5046524;28;20017;-71
2022/12/15 02:11:57;;;;;;;;;;;-1.80;99.90;;;;;;5046574;28;19921;-72
2022/12/15 02:14:39;;;;;;;;;;;-1.80;99.90;;;;;;5031475;28;20290;-72
2022/12/15 02:17:14;;;;;;;;;;;-1.80;99.90;;;;;;5046562;28;20007;-70
2022/12/15 02:20:11;;;;;;;;;;;-1.80;99.90;;;;;;5046774;28;19932;-71
2022/12/15 02:22:42;;;;;;;;;;;-1.90;99.90;;;;;;5030837;28;19925;-71
2022/12/15 02:25:08;;;;;;;;;;;-1.90;99.90;;;;;;5031254;28;19929;-72
2022/12/15 02:27:43;;;;;;;;;;;-1.90;99.90;;;;;;5029799;28;20385;-72
2022/12/15 02:30:14;;;;;;;;;;;-1.30;99.90;;;;;;5031353;28;20029;-72
2022/12/15 02:32:43;;;;;;;;;;;-1.90;99.90;;;;;;5030055;28;19946;-71
2022/12/15 02:35:11;;;;;;;;;;;-1.90;99.90;;;;;;5031164;28;19944;-71
2022/12/15 02:37:38;;;;;;;;;;;-1.90;99.90;;;;;;5031209;28;20470;-72
2022/12/15 02:40:05;;;;;;;;;;;-1.90;99.90;;;;;;5030566;28;19929;-71
2022/12/15 02:42:31;;;;;;;;;;;-1.80;99.90;;;;;;5030130;28;20019;-71
2022/12/15 02:45:07;;;;;;;;;;;-1.70;99.90;;;;;;5046199;28;20020;-72
2022/12/15 02:47:37;;;;;;;;;;;-1.70;99.90;;;;;;5031016;28;20026;-72
2022/12/15 02:50:21;;;;;;;;;;;-1.60;99.90;;;;;;5046088;28;20035;-72
2022/12/15 02:53:19;;;;;;;;;;;-1.50;99.90;;;;;;5029732;28;20382;-71
2022/12/15 02:55:59;;;;;;;;;;;-1.50;99.90;;;;;;5046508;28;19925;-70
2022/12/15 02:58:28;;;;;;;;;;;-1.50;99.90;;;;;;5030844;28;19932;-72
2022/12/15 03:00:58;;;;;;;;;;;-1.60;99.90;;;;;;5045853;28;20028;-71
2022/12/15 03:03:24;;;;;;;;;;;-1.60;99.90;;;;;;5012764;28;20437;-72
2022/12/15 03:05:54;;;;;;;;;;;-1.60;99.90;;;;;;5045846;28;19933;-71
2022/12/15 03:08:20;;;;;;;;;;;-1.70;99.90;;;;;;5030490;28;19932;-72
2022/12/15 03:10:46;;;;;;;;;;;-1.30;99.90;;;;;;5046052;28;19925;-70
2022/12/15 03:13:13;;;;;;;;;;;-1.80;99.90;;;;;;5030375;28;19969;-72
2022/12/15 03:15:38;;;;;;;;;;;-1.80;99.90;;;;;;5013240;28;20278;-72
2022/12/15 03:18:04;;;;;;;;;;;-1.20;99.90;;;;;;5029029;28;19929;-72
2022/12/15 03:20:30;;;;;;;;;;;-1.90;99.90;;;;;;5012900;28;19933;-71
2022/12/15 03:22:55;;;;;;;;;;;-1.90;99.90;;;;;;5029958;28;19976;-71
2022/12/15 03:25:21;;;;;;;;;;;-1.90;99.90;;;;;;5012739;28;20311;-72
2022/12/15 03:27:46;;;;;;;;;;;-2.00;99.90;;;;;;5062032;28;20023;-71
2022/12/15 03:30:12;;;;;;;;;;;-2.00;99.90;;;;;;5044726;28;19925;-72
2022/12/15 03:32:38;;;;;;;;;;;-2.00;99.90;;;;;;5045784;28;20011;-72
2022/12/15 03:35:04;;;;;;;;;;;-2.10;99.90;;;;;;5045646;28;19936;-71
2022/12/15 03:37:29;;;;;;;;;;;-2.00;99.90;;;;;;5012814;28;19937;-72
2022/12/15 03:39:55;;;;;;;;;;;-2.00;99.90;;;;;;5045350;28;20353;-70
2022/12/15 03:45:05;;;;;;;;;;;-1.90;99.90;;;;;;5045690;28;19933;-71
2022/12/15 03:47:31;;;;;;;;;;;-1.90;99.90;;;;;;5029993;28;19925;-71
2022/12/15 03:49:56;;;;;;;;;;;-1.80;99.90;;;;;;5044968;28;20069;-71
2022/12/15 03:52:22;;;;;;;;;;;-1.90;99.90;;;;;;5012624;28;19929;-71
2022/12/15 03:54:48;;;;;;;;;;;-1.80;99.90;;;;;;5044998;28;19932;-71
2022/12/15 03:57:13;;;;;;;;;;;-1.70;99.90;;;;;;5029538;28;20105;-72
2022/12/15 03:59:39;;;;;;;;;;;-1.20;99.90;;;;;;5045452;28;19925;-71
2022/12/15 04:02:04;;;;;;;;;;;-1.80;99.90;;;;;;5044968;28;20255;-72
2022/12/15 04:04:30;;;;;;;;;;;-1.80;99.90;;;;;;5045322;28;20353;-72
2022/12/15 04:06:55;;;;;;;;;;;-1.80;99.90;;;;;;5029194;28;20271;-72
2022/12/15 04:09:21;;;;;;;;;;;-1.80;99.90;;;;;;5045121;28;19925;-71
2022/12/15 04:11:46;;;;;;;;;;;-1.90;99.90;;;;;;5044908;28;19925;-72
2022/12/15 04:14:12;;;;;;;;;;;-1.90;99.90;;;;;;5011816;28;20531;-72
2022/12/15 04:16:37;;;;;;;;;;;-1.40;99.90;;;;;;5044959;28;19925;-72
2022/12/15 04:21:47;;;;;;;;;;;-1.90;99.90;;;;;;5029819;28;19925;-71
2022/12/15 05:32:39;;;;;;;;;;;-1.70;99.90;;;;;;5044417;28;19925;-71
2022/12/15 05:35:04;;;;;;;;;;;-1.40;99.90;;;;;;5043787;28;19925;-69
2022/12/15 05:37:30;;;;;;;;;;;-1.80;99.90;;;;;;5044231;28;19932;-72
2022/12/15 05:39:55;;;;;;;;;;;-1.70;99.90;;;;;;5028539;28;19951;-73
2022/12/15 05:42:21;;;;;;;;;;;-1.70;99.90;;;;;;5043418;28;19968;-72
2022/12/15 05:44:46;;;;;;;;;;;-1.60;99.90;;;;;;5028561;28;19932;-72
2022/12/15 05:47:12;;;;;;;;;;;-1.70;99.90;;;;;;5026854;28;19950;-72
2022/12/15 05:49:38;;;;;;;;;;;-1.50;99.90;;;;;;5028301;28;19925;-72
2022/12/15 05:52:03;;;;;;;;;;;-1.70;99.90;;;;;;5045086;28;20267;-71
2022/12/15 05:54:29;;;;;;;;;;;-1.70;99.90;;;;;;5031249;28;19929;-72
2022/12/15 05:56:54;;;;;;;;;;;-1.40;99.90;;;;;;5064163;28;19933;-72
2022/12/15 05:59:20;;;;;;;;;;;-1.70;99.90;;;;;;5046736;28;20259;-72
2022/12/15 06:01:45;;;;;;;;;;;-1.70;99.90;;;;;;5046785;28;19925;-72
2022/12/15 06:04:11;;;;;;;;;;;-1.70;99.90;;;;;;5047001;28;20017;-72
2022/12/15 06:06:37;;;;;;;;;;;-1.80;99.90;;;;;;5047014;28;19925;-72
2022/12/15 06:09:03;;;;;;;;;;;-1.80;99.90;;;;;;5030508;28;19926;-72
2022/12/15 06:11:28;;;;;;;;;;;-1.80;99.90;;;;;;5029903;28;19921;-73
2022/12/15 06:13:54;;;;;;;;;;;-1.90;99.90;;;;;;5047280;28;19928;-72
2022/12/15 06:16:21;;;;;;;;;;;-1.90;99.90;;;;;;5046815;28;19932;-72
2022/12/15 06:18:49;;;;;;;;;;;-1.90;99.90;;;;;;5030144;28;19938;-72
2022/12/15 06:21:16;;;;;;;;;;;-1.80;99.90;;;;;;5031059;28;19925;-72
2022/12/15 06:23:42;;;;;;;;;;;-1.80;99.90;;;;;;4981524;28;19925;-73
2022/12/15 06:26:10;;;;;;;;;;;-1.80;99.90;;;;;;4992220;28;19926;-72
2022/12/15 06:28:35;;;;;;;;;;;-1.70;99.90;;;;;;5006968;28;19929;-72
2022/12/15 06:31:02;;;;;;;;;;;-1.70;99.90;;;;;;4974806;28;20030;-72
2022/12/15 06:33:28;;;;;;;;;;;-1.70;99.90;;;;;;5023168;28;19925;-73
2022/12/15 06:35:54;;;;;;;;;;;-1.70;99.90;;;;;;5007124;28;19930;-73
2022/12/15 06:38:20;;;;;;;;;;;-1.60;99.90;;;;;;4990096;28;20359;-73
2022/12/15 06:40:53;;;;;;;;;;;-1.60;99.90;;;;;;5023629;28;19925;-73
2022/12/15 06:43:19;;;;;;;;;;;-1.60;99.90;;;;;;4991437;28;19926;-72
2022/12/15 06:45:47;;;;;;;;;;;-1.70;99.90;;;;;;5023270;28;19933;-71
2022/12/15 06:48:12;;;;;;;;;;;-1.70;99.90;;;;;;5023172;28;20012;-73
2022/12/15 06:50:39;;;;;;;;;;;-1.60;99.90;;;;;;5006561;28;20331;-73
2022/12/15 06:53:05;;;;;;;;;;;-1.60;99.90;;;;;;5023209;28;19945;-72
2022/12/15 06:55:30;;;;;;;;;;;-1.60;99.90;;;;;;4990030;28;19936;-72
2022/12/15 06:57:56;;;;;;;;;;;-1.60;99.90;;;;;;4990364;28;19926;-74
2022/12/15 07:00:22;;;;;;;;;;;-1.60;99.90;;;;;;4989872;28;19926;-73
2022/12/15 07:02:47;;;;;;;;;;;-1.50;99.90;;;;;;4990206;28;20023;-72
2022/12/15 07:05:13;;;;;;;;;;;-0.70;99.90;;;;;;4990306;28;20024;-74
2022/12/15 07:07:39;;;;;;;;;;;-1.50;99.90;;;;;;5005719;28;19925;-73
2022/12/15 07:10:04;;;;;;;;;;;-1.50;99.90;;;;;;5006692;28;19934;-72
2022/12/15 07:12:30;;;;;;;;;;;-1.50;99.90;;;;;;4989658;28;19971;-72
2022/12/15 07:14:56;;;;;;;;;;;-1.50;99.90;;;;;;5022601;28;19926;-72
2022/12/15 07:17:23;;;;;;;;;;;-1.50;99.90;;;;;;4991246;28;20493;-71
2022/12/15 07:19:48;;;;;;;;;;;-1.50;99.90;;;;;;5023069;28;20271;-71
2022/12/15 07:22:14;;;;;;;;;;;-1.50;99.90;;;;;;4990509;28;19930;-71
2022/12/15 07:24:39;;;;;;;;;;;-1.50;99.90;;;;;;5028806;28;19921;-71
2022/12/15 07:27:05;;;;;;;;;;;-1.50;99.90;;;;;;5030187;28;19925;-73
2022/12/15 07:29:31;;;;;;;;;;;-1.40;99.90;;;;;;5012491;28;19929;-72
2022/12/15 07:31:57;;;;;;;;;;;-1.40;99.90;;;;;;5029975;28;20413;-73
2022/12/15 07:34:22;;;;;;;;;;;-1.40;99.90;;;;;;5045175;27;20235;-73
2022/12/15 07:36:48;;;;;;;;;;;-1.20;99.90;;;;;;5030255;28;19987;-75
2022/12/15 07:39:14;;;;;;;;;;;-1.40;99.90;;;;;;5012928;28;19929;-75
2022/12/15 07:41:40;;;;;;;;;;;-1.40;99.90;;;;;;5030130;28;20410;-74
2022/12/15 07:44:06;;;;;;;;;;;-0.70;99.90;;;;;;5045579;28;20020;-73
2022/12/15 07:46:32;;;;;;;;;;;-1.30;99.90;;;;;;5011344;28;20398;-72
2022/12/15 07:48:57;;;;;;;;;;;-1.30;99.90;;;;;;5045045;28;19964;-74
2022/12/15 07:51:23;;;;;;;;;;;-1.00;99.90;;;;;;5028682;28;19929;-70
2022/12/15 07:53:49;;;;;;;;;;;-0.90;99.90;;;;;;5029947;28;19983;-74
2022/12/15 07:56:15;;;;;;;;;;;-1.00;99.90;;;;;;4995818;28;19925;-73
2022/12/15 07:58:41;;;;;;;;;;;-0.70;99.90;;;;;;5028133;28;19932;-71
2022/12/15 08:01:08;;;;;;;;;;;-1.10;99.90;;;;;;5045618;28;20366;-72
2022/12/15 08:03:34;;;;;;;;;;;-1.10;99.90;;;;;;5044769;28;19929;-72
2022/12/15 08:06:04;;;;;;;;;;;-1.10;99.90;;;;;;5045127;28;20277;-71
2022/12/15 08:08:30;;;;;;;;;;;-1.10;99.90;;;;;;5044872;28;19929;-72
2022/12/15 08:10:55;;;;;;;;;;;-0.50;99.90;;;;;;5028449;28;20397;-74
2022/12/15 08:13:21;;;;;;;;;;;-1.10;99.90;;;;;;5028488;28;19925;-71
2022/12/15 08:15:46;;;;;;;;;;;-0.90;99.90;;;;;;5043868;28;19982;-75
2022/12/15 08:18:12;;;;;;;;;;;-0.90;99.90;;;;;;5061579;28;19969;-74
2022/12/15 08:20:38;;;;;;;;;;;-1.00;99.90;;;;;;5028252;28;19925;-73
2022/12/15 08:23:03;;;;;;;;;;;-1.00;99.90;;;;;;5053161;27;19937;-72
2022/12/15 08:25:29;;;;;;;;;;;-0.90;99.90;;;;;;5044153;28;20298;-74
2022/12/15 08:27:55;;;;;;;;;;;-0.90;99.90;;;;;;5044628;28;19925;-71
2022/12/15 08:30:21;;;;;;;;;;;-0.70;99.90;;;;;;5044467;28;20420;-72
2022/12/15 08:32:47;;;;;;;;;;;-0.90;99.90;;;;;;5028891;28;20190;-71
2022/12/15 08:35:13;;;;;;;;;;;-0.80;99.90;;;;;;5044676;28;19932;-73
2022/12/15 08:37:39;;;;;;;;;;;-0.80;99.90;;;;;;5044194;28;19929;-74
2022/12/15 08:40:05;;;;;;;;;;;-0.80;99.90;;;;;;5044522;28;19990;-74
2022/12/15 08:42:37;;;;;;;;;;;-0.80;99.90;;;;;;5027562;28;19935;-71
2022/12/15 08:45:03;;;;;;;;;;;-0.80;99.90;;;;;;5044551;28;20400;-75
2022/12/15 08:47:28;;;;;;;;;;;-0.80;99.90;;;;;;5029337;28;19943;-73
2022/12/15 08:49:54;;;;;;;;;;;-0.70;99.90;;;;;;5029157;28;20281;-74
2022/12/15 08:52:20;;;;;;;;;;;-0.70;99.90;;;;;;5017076;28;19925;-74
2022/12/15 08:54:46;;;;;;;;;;;-0.70;99.90;;;;;;5030292;28;19925;-74
2022/12/15 08:57:11;;;;;;;;;;;-0.60;99.90;;;;;;5028062;28;19932;-75
2022/12/15 08:59:37;;;;;;;;;;;-0.60;99.90;;;;;;5026578;28;19932;-73
2022/12/15 09:02:03;;;;;;;;;;;-0.60;99.90;;;;;;5010099;28;19925;-74
2022/12/15 09:04:28;;;;;;;;;;;-0.60;99.90;;;;;;5027081;28;19936;-73
2022/12/15 09:06:54;;;;;;;;;;;-0.50;99.90;;;;;;5009697;28;19925;-74
2022/12/15 09:09:20;;;;;;;;;;;-0.50;99.90;;;;;;5044172;28;19981;-74
2022/12/15 09:11:46;;;;;;;;;;;-0.50;99.90;;;;;;5043325;28;19925;-74
2022/12/15 09:14:11;;;;;;;;;;;-0.40;99.90;;;;;;5043444;28;19925;-73
2022/12/15 09:16:37;;;;;;;;;;;-0.40;99.90;;;;;;5027929;28;19986;-74
2022/12/15 09:19:03;;;;;;;;;;;-0.40;99.90;;;;;;5042372;28;20400;-74
2022/12/15 09:21:29;;;;;;;;;;;-0.40;99.90;;;;;;5059439;28;19984;-73
2022/12/15 09:23:59;;;;;;;;;;;-0.40;99.90;;;;;;5000019;28;20538;-71
2022/12/15 09:26:24;;;;;;;;;;;-0.30;99.90;;;;;;5019980;28;19944;-72
2022/12/15 09:28:50;;;;;;;;;;;-0.20;99.90;;;;;;5023213;28;19926;-73
2022/12/15 09:31:23;;;;;;;;;;;0.10;99.90;;;;;;4990500;28;19973;-74
2022/12/15 09:33:50;;;;;;;;;;;-0.10;99.90;;;;;;5006681;28;19933;-73
2022/12/15 09:36:16;;;;;;;;;;;-0.10;99.90;;;;;;5007044;28;19926;-75
2022/12/15 09:38:42;;;;;;;;;;;0.00;99.90;;;;;;4991551;28;19925;-74
2022/12/15 09:41:21;;;;;;;;;;;0.10;99.90;;;;;;4991564;28;19926;-73
2022/12/15 09:43:50;;;;;;;;;;;0.10;99.90;;;;;;5006508;28;19977;-74
2022/12/15 09:46:34;;;;;;;;;;;0.10;99.90;;;;;;5022834;28;19978;-73
2022/12/15 09:49:02;;;;;;;;;;;0.20;99.90;;;;;;5006103;28;20016;-76
2022/12/15 09:51:47;;;;;;;;;;;0.20;99.90;;;;;;5023369;28;19925;-73
2022/12/15 09:54:13;;;;;;;;;;;0.30;99.90;;;;;;5018918;28;19952;-73
2022/12/15 09:56:52;;;;;;;;;;;0.40;99.90;;;;;;5023141;28;20016;-71
2022/12/15 09:59:17;;;;;;;;;;;0.30;99.90;;;;;;4990957;28;19930;-75
2022/12/15 10:01:46;;;;;;;;;;;0.40;99.90;;;;;;5006042;28;19929;-74
2022/12/15 10:04:20;;;;;;;;;;;0.40;99.90;;;;;;4991338;28;20025;-76
2022/12/15 10:06:45;;;;;;;;;;;0.50;99.90;;;;;;5022524;28;19926;-75
2022/12/15 10:09:14;;;;;;;;;;;0.50;99.90;;;;;;5023725;28;19933;-72
2022/12/15 10:11:53;;;;;;;;;;;0.50;99.90;;;;;;5024178;28;19926;-75
2022/12/15 10:14:45;;;;;;;;;;;0.50;99.90;;;;;;4991183;28;19926;-76
2022/12/15 10:17:18;;;;;;;;;;;0.50;99.90;;;;;;5007955;28;19949;-75
2022/12/15 10:19:46;;;;;;;;;;;0.60;99.90;;;;;;5022527;28;19929;-74
2022/12/15 10:22:18;;;;;;;;;;;0.60;99.90;;;;;;4990983;28;19969;-73
2022/12/15 10:24:44;;;;;;;;;;;0.60;99.90;;;;;;5005469;28;19969;-72
2022/12/15 10:27:16;;;;;;;;;;;0.60;99.90;;;;;;4989505;28;20178;-73
2022/12/15 10:29:46;;;;;;;;;;;0.70;99.90;;;;;;5005900;28;20343;-73
2022/12/15 10:32:14;;;;;;;;;;;0.70;99.90;;;;;;4990525;28;20017;-72
2022/12/15 10:34:40;;;;;;;;;;;0.70;99.90;;;;;;5022290;28;20279;-73
2022/12/15 10:37:08;;;;;;;;;;;1.00;99.90;;;;;;4988399;28;19926;-72
2022/12/15 10:39:38;;;;;;;;;;;0.80;99.90;;;;;;4990608;28;19934;-71
2022/12/15 10:42:11;;;;;;;;;;;0.90;99.90;;;;;;5021793;28;19952;-71
2022/12/15 10:44:38;;;;;;;;;;;0.90;99.90;;;;;;4990460;28;20043;-71
2022/12/15 10:47:13;;;;;;;;;;;1.00;99.90;;;;;;4988485;28;19933;-71
2022/12/15 10:49:39;;;;;;;;;;;1.00;99.90;;;;;;5005793;28;19932;-72
2022/12/15 10:52:05;;;;;;;;;;;1.00;99.90;;;;;;4989024;28;20530;-72
2022/12/15 10:54:35;;;;;;;;;;;1.10;99.90;;;;;;4973158;28;19926;-72
2022/12/15 10:57:16;;;;;;;;;;;1.10;99.90;;;;;;5021723;28;19926;-71
2022/12/15 10:59:41;;;;;;;;;;;1.20;99.90;;;;;;4990187;28;19933;-70
2022/12/15 11:02:19;;;;;;;;;;;1.30;99.90;;;;;;4988442;28;20481;-71
2022/12/15 11:04:55;;;;;;;;;;;1.30;99.90;;;;;;4990161;28;19976;-69
2022/12/15 11:07:22;;;;;;;;;;;1.40;99.90;;;;;;5021492;28;19994;-70
2022/12/15 11:09:48;;;;;;;;;;;1.40;99.90;;;;;;4989336;28;19930;-71
2022/12/15 11:15:02;;;;;;;;;;;1.50;99.90;;;;;;5021872;28;19925;-70
2022/12/15 11:17:33;;;;;;;;;;;1.60;99.90;;;;;;5003864;28;19979;-69
2022/12/15 11:20:01;;;;;;;;;;;1.60;99.90;;;;;;5021288;28;20032;-70
2022/12/15 11:22:33;;;;;;;;;;;1.70;99.90;;;;;;4990126;28;20278;-70
2022/12/15 11:25:19;;;;;;;;;;;1.70;99.90;;;;;;5018949;28;19925;-70
2022/12/15 11:27:46;;;;;;;;;;;1.80;99.90;;;;;;5011729;28;19925;-70
2022/12/15 11:30:13;;;;;;;;;;;1.80;99.90;;;;;;5044505;28;19922;-69
2022/12/15 11:32:47;;;;;;;;;;;1.80;99.90;;;;;;5028884;28;19972;-70
2022/12/15 11:35:14;;;;;;;;;;;1.90;99.90;;;;;;5027687;28;20004;-70
2022/12/15 11:37:41;;;;;;;;;;;1.90;99.90;;;;;;5029210;28;20243;-70
2022/12/15 11:40:18;;;;;;;;;;;1.90;99.90;;;;;;5028502;28;19925;-70
2022/12/15 11:43:02;;;;;;;;;;;2.00;99.90;;;;;;5044762;28;20397;-70
2022/12/15 11:45:40;;;;;;;;;;;2.00;99.90;;;;;;5044452;28;19968;-71
2022/12/15 11:48:06;;;;;;;;;;;2.00;99.90;;;;;;5044016;28;19925;-71
2022/12/15 11:50:35;;;;;;;;;;;2.10;99.90;;;;;;5043512;28;20330;-70
2022/12/15 11:53:39;;;;;;;;;;;2.10;99.90;;;;;;5044159;28;20362;-69
2022/12/15 11:56:04;;;;;;;;;;;2.10;99.90;;;;;;5088614;28;20371;-68
2022/12/15 11:58:30;;;;;;;;;;;2.20;99.90;;;;;;5088266;28;20019;-69
2022/12/15 12:01:04;;;;;;;;;;;2.20;99.90;;;;;;5060481;28;19968;-68
2022/12/15 12:03:33;;;;;;;;;;;2.20;99.90;;;;;;5024052;28;20370;-70
2022/12/15 12:06:07;;;;;;;;;;;2.20;99.90;;;;;;5026938;28;19925;-68
2022/12/15 12:08:38;;;;;;;;;;;2.30;99.90;;;;;;5010240;28;19980;-69
2022/12/15 12:11:11;;;;;;;;;;;2.30;99.90;;;;;;5026635;28;20009;-69
2022/12/15 12:13:37;;;;;;;;;;;2.40;99.90;;;;;;5042744;28;20348;-69
2022/12/15 12:16:21;;;;;;;;;;;2.40;99.90;;;;;;5028328;28;19968;-69
2022/12/15 12:18:50;;;;;;;;;;;2.40;99.90;;;;;;5042337;28;20012;-68
2022/12/15 12:21:19;;;;;;;;;;;2.40;99.90;;;;;;5042080;28;19983;-69
2022/12/15 12:23:55;;;;;;;;;;;2.40;99.90;;;;;;5026805;28;20016;-69
2022/12/15 12:26:24;;;;;;;;;;;2.50;99.90;;;;;;5010435;28;19998;-68
2022/12/15 12:28:57;;;;;;;;;;;2.50;99.90;;;;;;5028133;28;20375;-68
2022/12/15 12:31:23;;;;;;;;;;;2.50;99.90;;;;;;5010041;28;20419;-68
2022/12/15 12:33:51;;;;;;;;;;;2.50;99.90;;;;;;5043553;28;19976;-69
2022/12/15 12:36:16;;;;;;;;;;;2.50;99.90;;;;;;5043252;28;19932;-68
2022/12/15 12:38:45;;;;;;;;;;;2.60;99.90;;;;;;5028208;28;19933;-69
2022/12/15 12:41:29;;;;;;;;;;;2.60;99.90;;;;;;5041966;28;19931;-69
2022/12/15 12:43:59;;;;;;;;;;;2.50;99.90;;;;;;5039349;28;19925;-69
2022/12/15 12:46:29;;;;;;;;;;;2.50;99.90;;;;;;5026227;28;19925;-68
2022/12/15 12:48:55;;;;;;;;;;;2.60;99.90;;;;;;5010461;28;19929;-69
2022/12/15 12:51:21;;;;;;;;;;;2.50;99.90;;;;;;5027820;28;20544;-68
2022/12/15 12:53:46;;;;;;;;;;;2.50;99.90;;;;;;5025772;28;19969;-66
2022/12/15 12:56:30;;;;;;;;;;;2.60;99.90;;;;;;5026495;28;19962;-67
2022/12/15 12:58:56;;;;;;;;;;;2.50;99.90;;;;;;5042041;28;19925;-67
2022/12/15 13:01:27;;;;;;;;;;;2.50;99.90;;;;;;5022438;28;20004;-67
2022/12/15 13:04:12;;;;;;;;;;;2.60;99.90;;;;;;5027433;28;19925;-67
2022/12/15 13:06:38;;;;;;;;;;;2.60;99.90;;;;;;5027332;28;19925;-67
2022/12/15 13:09:15;;;;;;;;;;;2.60;99.90;;;;;;5029779;28;19929;-67
2022/12/15 13:11:47;;;;;;;;;;;2.60;99.90;;;;;;5029610;28;20350;-67
2022/12/15 13:14:29;;;;;;;;;;;2.60;99.90;;;;;;5030657;28;20025;-66
2022/12/15 13:16:56;;;;;;;;;;;2.60;99.90;;;;;;5043949;28;19925;-67
2022/12/15 13:19:54;;;;;;;;;;;2.60;99.90;;;;;;5012362;28;20246;-67
2022/12/15 13:22:39;;;;;;;;;;;2.60;99.90;;;;;;5030202;28;19931;-66
2022/12/15 13:25:23;;;;;;;;;;;2.60;99.90;;;;;;5045771;28;19929;-66
2022/12/15 13:27:56;;;;;;;;;;;2.60;99.90;;;;;;5027255;28;19947;-66
2022/12/15 13:30:22;;;;;;;;;;;2.60;99.90;;;;;;5028403;28;20367;-67
2022/12/15 13:32:53;;;;;;;;;;;2.60;99.90;;;;;;5046273;28;19932;-69
2022/12/15 13:35:38;;;;;;;;;;;2.50;99.90;;;;;;5027749;28;19985;-67
2022/12/15 13:38:07;;;;;;;;;;;2.50;99.90;;;;;;5045011;28;20358;-68
2022/12/15 13:40:35;;;;;;;;;;;3.40;99.90;;;;;;5030874;28;19994;-68
2022/12/15 13:43:04;;;;;;;;;;;2.50;99.90;;;;;;5029497;28;20466;-68
2022/12/15 13:45:35;;;;;;;;;;;2.40;99.90;;;;;;5045881;28;19929;-68
2022/12/15 13:48:11;;;;;;;;;;;2.40;99.90;;;;;;5029366;28;20026;-69
2022/12/15 13:50:59;;;;;;;;;;;2.30;99.90;;;;;;5025857;28;20382;-68
2022/12/15 13:53:25;;;;;;;;;;;2.30;99.90;;;;;;5022283;28;20025;-69
2022/12/15 13:55:54;;;;;;;;;;;2.40;99.90;;;;;;5047257;28;20363;-68
2022/12/15 13:58:20;;;;;;;;;;;3.00;99.90;;;;;;5031344;28;19925;-67
2022/12/15 14:00:50;;;;;;;;;;;2.30;99.90;;;;;;5029719;28;20365;-69
2022/12/15 14:03:15;;;;;;;;;;;2.30;99.90;;;;;;5046359;28;19970;-68
2022/12/15 14:05:47;;;;;;;;;;;2.80;99.90;;;;;;5046412;28;20308;-69
2022/12/15 14:08:14;;;;;;;;;;;2.50;99.90;;;;;;5031372;28;19925;-69
2022/12/15 14:10:58;;;;;;;;;;;2.40;99.90;;;;;;5031777;28;20324;-69
2022/12/15 14:13:26;;;;;;;;;;;2.50;99.90;;;;;;5045798;28;19948;-68
2022/12/15 14:15:54;;;;;;;;;;;2.50;99.90;;;;;;5031769;28;19970;-68
2022/12/15 14:18:25;;;;;;;;;;;2.50;99.90;;;;;;5031187;28;19921;-69
2022/12/15 14:20:51;;;;;;;;;;;2.50;99.90;;;;;;5046545;28;19925;-70
2022/12/15 14:23:25;;;;;;;;;;;2.60;99.90;;;;;;5030643;28;19969;-70
2022/12/15 14:25:52;;;;;;;;;;;2.50;99.90;;;;;;5046692;28;19929;-70
2022/12/15 14:28:25;;;;;;;;;;;2.60;99.90;;;;;;5030906;28;19925;-70
2022/12/15 14:30:50;;;;;;;;;;;2.60;99.90;;;;;;5031749;28;19930;-71
2022/12/15 14:33:17;;;;;;;;;;;2.60;99.90;;;;;;5046420;28;19974;-69
2022/12/15 14:35:47;;;;;;;;;;;2.60;99.90;;;;;;5031111;28;20394;-70
2022/12/15 14:38:18;;;;;;;;;;;2.60;99.90;;;;;;5030803;28;19929;-69
2022/12/15 14:40:45;;;;;;;;;;;2.60;99.90;;;;;;5031345;28;19932;-70
2022/12/15 14:43:18;;;;;;;;;;;2.60;99.90;;;;;;5031318;28;19948;-70
2022/12/15 14:45:43;;;;;;;;;;;2.50;99.90;;;;;;5031299;28;20245;-70
2022/12/15 14:48:09;;;;;;;;;;;2.50;99.90;;;;;;5031099;28;20039;-69
2022/12/15 14:50:35;;;;;;;;;;;2.50;99.90;;;;;;5029935;28;19925;-69
2022/12/15 14:53:01;;;;;;;;;;;2.50;99.90;;;;;;5013385;28;20016;-70
2022/12/15 14:55:31;;;;;;;;;;;2.50;99.90;;;;;;5030809;28;20342;-70
2022/12/15 14:57:57;;;;;;;;;;;2.50;99.90;;;;;;5030877;28;19925;-69
2022/12/15 15:00:24;;;;;;;;;;;2.50;99.90;;;;;;5012959;28;19935;-69
2022/12/15 15:03:10;;;;;;;;;;;2.50;99.90;;;;;;5013279;28;19925;-69
2022/12/15 15:05:37;;;;;;;;;;;2.40;99.90;;;;;;5026212;28;19936;-70
2022/12/15 15:08:03;;;;;;;;;;;2.80;99.90;;;;;;5013019;28;19933;-70
2022/12/15 15:10:29;;;;;;;;;;;2.40;99.90;;;;;;5030206;28;19982;-70
2022/12/15 15:12:55;;;;;;;;;;;2.40;99.90;;;;;;5030474;28;19968;-69
2022/12/15 15:15:23;;;;;;;;;;;2.50;99.90;;;;;;5013043;28;19980;-69
2022/12/15 15:17:51;;;;;;;;;;;2.50;99.90;;;;;;5030462;28;19972;-68
2022/12/15 15:20:18;;;;;;;;;;;2.40;99.90;;;;;;5030709;28;19925;-69
2022/12/15 15:22:45;;;;;;;;;;;2.40;99.90;;;;;;5013207;28;19929;-70
2022/12/15 15:25:20;;;;;;;;;;;2.90;99.90;;;;;;5026144;27;20272;-70
2022/12/15 15:27:45;;;;;;;;;;;2.40;99.90;;;;;;5022939;28;19933;-70
2022/12/15 15:30:21;;;;;;;;;;;2.30;99.90;;;;;;4991375;28;19926;-69
2022/12/15 15:32:48;;;;;;;;;;;2.20;99.90;;;;;;4991538;28;19926;-70
2022/12/15 15:35:14;;;;;;;;;;;2.20;99.90;;;;;;4991105;28;19932;-68
2022/12/15 15:37:40;;;;;;;;;;;2.20;99.90;;;;;;4990855;28;20299;-70
2022/12/15 15:40:09;;;;;;;;;;;2.10;99.90;;;;;;5022865;28;19925;-69
2022/12/15 15:42:34;;;;;;;;;;;2.10;99.90;;;;;;4990573;28;19932;-68
2022/12/15 15:45:00;;;;;;;;;;;2.00;99.90;;;;;;4990969;28;19926;-68
2022/12/15 15:47:26;;;;;;;;;;;2.10;99.90;;;;;;4990844;28;19926;-70
2022/12/15 15:49:53;;;;;;;;;;;2.70;99.90;;;;;;4990950;28;19986;-70
2022/12/15 15:52:19;;;;;;;;;;;2.00;99.90;;;;;;4990841;28;19930;-69
2022/12/15 15:54:44;;;;;;;;;;;2.00;99.90;;;;;;4989324;28;20349;-68
2022/12/15 15:57:12;;;;;;;;;;;2.00;99.90;;;;;;4990894;28;19932;-68
2022/12/15 15:59:41;;;;;;;;;;;1.90;99.90;;;;;;5022469;28;19993;-69
2022/12/15 16:02:08;;;;;;;;;;;1.80;99.90;;;;;;5022576;28;19930;-68
2022/12/15 16:04:36;;;;;;;;;;;1.80;99.90;;;;;;4990552;28;20396;-69
2022/12/15 16:07:03;;;;;;;;;;;1.80;99.90;;;;;;4989586;28;19982;-68
2022/12/15 16:09:28;;;;;;;;;;;1.70;99.90;;;;;;4990508;28;19970;-69
2022/12/15 16:11:54;;;;;;;;;;;1.90;99.90;;;;;;4990594;28;19926;-69
2022/12/15 16:14:20;;;;;;;;;;;2.10;99.90;;;;;;5022201;28;19926;-70
2022/12/15 16:16:45;;;;;;;;;;;1.60;99.90;;;;;;4990623;28;19933;-70
2022/12/15 16:19:11;;;;;;;;;;;1.60;99.90;;;;;;4989456;28;19926;-69
2022/12/15 16:21:37;;;;;;;;;;;1.60;99.90;;;;;;4990218;28;19933;-68
2022/12/15 16:24:06;;;;;;;;;;;1.70;99.90;;;;;;5004236;28;20424;-68
2022/12/15 16:26:32;;;;;;;;;;;1.70;99.90;;;;;;5044513;28;19971;-69
2022/12/15 16:28:57;;;;;;;;;;;1.70;99.90;;;;;;5029697;28;19930;-68
2022/12/15 16:31:27;;;;;;;;;;;1.60;99.90;;;;;;5029562;28;19929;-69
2022/12/15 16:33:52;;;;;;;;;;;1.70;99.90;;;;;;5045345;28;19925;-65
2022/12/15 16:36:18;;;;;;;;;;;1.70;99.90;;;;;;5029028;28;19932;-66
2022/12/15 16:38:43;;;;;;;;;;;1.60;99.90;;;;;;5044567;28;19974;-67
2022/12/15 16:41:13;;;;;;;;;;;1.50;99.90;;;;;;5044951;28;19972;-66
2022/12/15 16:43:38;;;;;;;;;;;2.10;99.90;;;;;;5011669;28;19925;-67
2022/12/15 16:46:04;;;;;;;;;;;1.50;99.90;;;;;;5028854;28;19929;-68
2022/12/15 16:48:30;;;;;;;;;;;1.40;99.90;;;;;;5044382;28;20316;-67
2022/12/15 16:50:57;;;;;;;;;;;1.40;99.90;;;;;;5044737;28;20330;-66
2022/12/15 16:53:25;;;;;;;;;;;1.40;99.90;;;;;;5029320;28;19925;-67
2022/12/15 16:55:54;;;;;;;;;;;1.40;99.90;;;;;;5028952;28;19925;-67
2022/12/15 16:58:20;;;;;;;;;;;1.40;99.90;;;;;;5028379;28;20275;-68
2022/12/15 17:00:45;;;;;;;;;;;1.40;99.90;;;;;;5029032;28;19925;-67
2022/12/15 17:03:12;;;;;;;;;;;1.50;99.90;;;;;;5029065;28;19948;-69